Thursday, February 22, 2018, 5:06 PM GMT
Back to Local

CYHM, Hamilton Airport

Location: , , Canada Lat: 43.167
Local Time: 5:06 PM GMT (17:06 GMT) Lon: -79.933
Time Zone: GMT Elev: 777 ft

Show me the last for .
Show Decoded

2018-02-22 16:00 METAR CYHM 221600Z 05013KT 15SM FEW010 BKN016 BKN062 OVC082 M01/M02 A3062 RMK
                 CU2SC3SC2AC1 SLP383 =
2018-02-22 15:00 METAR CYHM 221500Z 06012G17KT 15SM BKN012 OVC090 M01/M03 A3061 RMK SC5AC3 SLP380
                 =
2018-02-22 14:00 METAR CYHM 221400Z 06013KT 15SM FEW015 FEW030 OVC090 M02/M04 A3061 RMK CU1SC1AC7
                 CU TR SLP378 =
2018-02-22 13:00 METAR CYHM 221300Z 04008G15KT 15SM FEW022 BKN095 M02/M04 A3061 RMK SC2AC5 SLP380
                 =
2018-02-22 12:00 METAR CYHM 221200Z 05012KT 15SM FEW025 OVC120 M03/M05 A3060 RMK SC1AC7 SLP374 =
2018-02-22 11:00 METAR CYHM 221100Z 03009KT 15SM OVC110 M03/M06 A3061 RMK AC8 SLP379 =
2018-02-22 10:00 METAR CYHM 221000Z 04009G15KT 15SM OVC130 M03/M06 A3061 RMK AC8 SLP377 =
2018-02-22 09:00 METAR CYHM 220900Z 03011KT 15SM FEW030 OVC110 M02/M05 A3062 RMK CF1AC8 CF TR
                 SLP382 =
2018-02-22 08:00 METAR CYHM 220800Z 04009KT 15SM FEW030 OVC140 M02/M05 A3063 RMK CF1AC8 CF TR
                 SLP384 =
2018-02-22 07:00 METAR CYHM 220700Z 01006KT 15SM OVC140 M02/M05 A3064 RMK AC8 SLP387 =
2018-02-22 06:00 METAR CYHM 220600Z 36006KT 15SM OVC140 M01/M05 A3062 RMK AC8 SLP382 =
2018-02-22 05:00 METAR CYHM 220500Z 34005KT 15SM FEW150 BKN200 M02/M04 A3063 RMK AC2CI5 SLP385 =
2018-02-22 04:00 METAR CYHM 220400Z 33006KT 15SM OVC150 M01/M04 A3061 RMK AC8 SLP377 =

Support USWX by starting your Amazon purchase here.